Time;durP1;ratioP1;P1;durP2;ratioP2;P2;SDS_P1;SDS_P2;PMS_P1;PMS_P2;Temp;Humidity;BMP_temperature;BMP_pressure;BME280_temperature;BME280_humidity;BME280_pressure;Samples;Min_cycle;Max_cycle;Signal;HPM_P1;HPM_P2
2021/08/15 00:08:49;;;;;;;7.25;4.40;;;;;;;21.54;75.16;100513.72;2584769;54;19984;31
2021/08/15 00:11:18;;;;;;;8.55;4.25;;;;;;;21.48;75.80;100504.63;2584946;54;20030;31
2021/08/15 00:13:47;;;;;;;9.25;4.70;;;;;;;21.89;73.82;100509.69;2585258;46;21451;31
2021/08/15 00:16:16;;;;;;;7.75;4.30;;;;;;;21.77;74.18;100510.47;2585395;54;20948;31
2021/08/15 00:28:39;;;;;;;12.17;5.10;;;;;;;21.32;75.16;100518.63;2585345;54;20030;31
2021/08/15 00:31:08;;;;;;;8.87;4.60;;;;;;;21.64;74.36;100509.63;2584720;54;20242;31
2021/08/15 00:33:38;;;;;;;7.55;4.80;;;;;;;21.44;75.14;100510.91;2584567;47;20233;31
2021/08/15 00:36:07;;;;;;;10.50;5.10;;;;;;;21.62;75.05;100508.06;2584814;54;20971;31
2021/08/15 00:38:36;;;;;;;7.25;4.50;;;;;;;21.73;74.58;100503.84;2683333;39;21242;31
2021/08/15 00:41:06;;;;;;;11.05;5.20;;;;;;;21.44;75.15;100503.16;2585575;54;20123;31
2021/08/15 01:20:46;;;;;;;12.25;6.40;;;;;;;20.32;77.57;100491.19;2585291;54;20030;31
2021/08/15 01:23:15;;;;;;;11.13;6.53;;;;;;;20.63;76.58;100492.78;2584935;47;20034;31
2021/08/15 01:25:44;;;;;;;11.60;5.85;;;;;;;20.83;76.10;100488.97;2584724;54;20630;31
2021/08/15 01:28:20;;;;;;;10.85;5.80;;;;;;;20.77;76.32;100490.19;2584648;54;20030;31
2021/08/15 01:35:55;;;;;;;7.37;5.60;;;;;;;20.81;78.64;100485.66;2585960;47;20038;31
2021/08/15 01:53:17;;;;;;;8.90;5.40;;;;;;;21.00;80.22;100484.41;2584212;54;20030;31
2021/08/15 02:00:45;;;;;;;10.13;5.10;;;;;;;20.34;83.53;100488.56;2584972;54;20081;31
2021/08/15 02:03:14;;;;;;;7.40;5.50;;;;;;;20.41;83.89;100479.50;2584959;54;21579;31
2021/08/15 02:05:43;;;;;;;9.75;5.38;;;;;;;20.49;83.01;100483.28;2753321;31;21722;31
2021/08/15 02:08:12;;;;;;;7.50;5.25;;;;;;;20.70;81.26;100481.13;2585638;47;21380;31
2021/08/15 02:10:42;;;;;;;9.50;6.00;;;;;;;20.96;79.91;100484.69;2585392;47;20053;31
2021/08/15 02:13:11;;;;;;;8.15;5.25;;;;;;;21.27;78.56;100476.69;2584652;54;20057;31
2021/08/15 02:20:37;;;;;;;8.37;5.60;;;;;;;20.99;79.47;100479.34;2589025;54;20050;31
2021/08/15 02:23:06;;;;;;;8.45;5.25;;;;;;;20.85;79.73;100485.38;2607673;54;20058;31
2021/08/15 02:25:35;;;;;;;8.85;6.32;;;;;;;21.41;77.67;100477.44;2596402;54;20874;31
2021/08/15 02:33:00;;;;;;;7.57;5.68;;;;;;;21.26;77.85;100486.22;2597367;54;20440;31
2021/08/15 02:35:31;;;;;;;12.63;5.93;;;;;;;21.50;75.44;100481.22;2585905;54;20917;31
2021/08/15 02:38:00;;;;;;;10.05;5.90;;;;;;;20.90;76.69;100482.50;2587369;54;21117;31
2021/08/15 02:40:29;;;;;;;10.65;5.70;;;;;;;21.23;74.27;100486.41;2586253;46;21396;31
2021/08/15 02:55:21;;;;;;;11.00;5.45;;;;;;;21.25;74.67;100483.72;2587010;54;20172;31
2021/08/15 02:57:50;;;;;;;10.20;5.75;;;;;;;20.94;74.86;100479.63;2594077;46;20023;31
2021/08/15 03:05:12;;;;;;;13.40;7.15;;;;;;;19.82;80.32;100488.16;2630843;54;20034;-71
2021/08/15 03:07:38;;;;;;;9.18;6.78;;;;;;;20.10;79.96;100483.06;2635556;39;20429;-72
2021/08/15 03:10:08;;;;;;;13.25;6.90;;;;;;;19.85;81.06;100488.81;2631848;46;20035;-69
2021/08/15 03:12:33;;;;;;;14.60;6.22;;;;;;;19.99;81.38;100492.34;2631153;54;19994;-71
2021/08/15 03:14:59;;;;;;;11.65;6.68;;;;;;;20.50;79.08;100490.09;2631350;46;20018;-72
2021/08/15 03:17:24;;;;;;;10.20;6.28;;;;;;;20.43;79.32;100488.00;2631728;54;20063;-70
2021/08/15 03:19:50;;;;;;;11.40;6.03;;;;;;;20.05;81.90;100492.81;2631671;54;19997;-71
2021/08/15 03:22:15;;;;;;;10.95;6.25;;;;;;;20.60;79.79;100495.56;2631671;54;20017;-70
2021/08/15 03:24:41;;;;;;;9.40;6.00;;;;;;;20.40;81.42;100486.41;2630924;46;20003;-71
2021/08/15 03:27:06;;;;;;;9.45;6.18;;;;;;;20.18;82.23;100498.94;2631158;54;20006;-69
2021/08/15 03:29:32;;;;;;;8.05;6.25;;;;;;;20.41;81.17;100501.00;2630612;46;19991;-69
2021/08/15 03:31:58;;;;;;;11.35;7.20;;;;;;;20.94;76.79;100497.72;2631100;54;20013;-70
2021/08/15 03:36:52;;;;;;;18.65;7.47;;;;;;;20.23;77.94;100494.34;2631192;54;20025;-70
2021/08/15 03:39:17;;;;;;;13.32;7.88;;;;;;;20.16;77.12;100503.38;2630063;47;20062;-69
2021/08/15 03:41:44;;;;;;;13.43;7.32;;;;;;;20.07;77.21;100505.63;2630638;54;20011;-70
2021/08/15 03:44:10;;;;;;;16.83;7.28;;;;;;;19.92;78.25;100511.69;2630492;54;19991;-72
2021/08/15 03:46:37;;;;;;;15.02;7.75;;;;;;;19.99;78.32;100505.25;2630171;54;20024;-71
2021/08/15 03:53:59;;;;;;;13.90;7.50;;;;;;;20.01;80.54;100493.06;2634731;39;20430;-69
2021/08/15 03:56:24;;;;;;;11.40;6.60;;;;;;;20.08;81.88;100497.81;2630450;46;20070;-69
2021/08/15 03:58:51;;;;;;;12.07;5.70;;;;;;;20.30;81.21;100489.66;2630787;54;20003;-71
2021/08/15 04:01:17;;;;;;;8.73;5.45;;;;;;;19.99;82.29;100492.34;2630419;47;20572;-70
2021/08/15 04:03:43;;;;;;;9.38;5.88;;;;;;;20.09;81.86;100489.13;2630548;46;20053;-70
2021/08/15 04:06:09;;;;;;;7.18;5.50;;;;;;;20.13;82.12;100487.19;2630667;54;19990;-68
2021/08/15 04:08:36;;;;;;;11.90;6.30;;;;;;;20.27;80.85;100484.66;2631129;39;20516;-71
2021/08/15 04:11:01;;;;;;;8.05;5.70;;;;;;;20.28;81.42;100481.16;2628878;54;20015;-70
2021/08/15 04:13:27;;;;;;;8.10;5.63;;;;;;;20.22;81.01;100478.94;2628961;54;20006;-69
2021/08/15 04:15:52;;;;;;;8.68;5.53;;;;;;;20.29;81.17;100481.06;2628779;54;20014;-69
2021/08/15 04:18:18;;;;;;;7.00;5.28;;;;;;;20.55;79.88;100482.09;2629747;54;20010;-72
2021/08/15 04:20:43;;;;;;;19.55;6.05;;;;;;;20.63;79.67;100483.28;2630114;54;20013;-69
2021/08/15 04:23:08;;;;;;;12.43;5.90;;;;;;;20.52;79.81;100487.44;2629838;54;20007;-69
2021/08/15 04:25:35;;;;;;;12.32;6.10;;;;;;;21.00;78.25;100480.97;2630706;54;20546;-71
2021/08/15 04:28:00;;;;;;;11.77;6.10;;;;;;;20.68;79.44;100486.41;2630167;54;20557;-71
2021/08/15 04:30:26;;;;;;;11.90;6.10;;;;;;;20.89;79.36;100483.41;2630595;54;20019;-71
2021/08/15 04:32:51;;;;;;;9.15;5.60;;;;;;;21.20;78.39;100490.94;2631016;54;20073;-70
2021/08/15 04:35:17;;;;;;;8.75;5.55;;;;;;;21.05;78.42;100485.00;2630726;46;20051;-68
2021/08/15 04:37:42;;;;;;;8.70;5.57;;;;;;;21.15;77.93;100490.41;2630907;54;20007;-73
2021/08/15 04:40:08;;;;;;;10.65;6.40;;;;;;;21.42;76.64;100479.13;2633823;39;20434;-69
2021/08/15 04:42:33;;;;;;;8.18;6.00;;;;;;;21.72;75.03;100486.66;2630245;54;20575;-71
2021/08/15 04:44:59;;;;;;;11.63;6.30;;;;;;;21.59;75.58;100485.78;2629847;54;20007;-69
2021/08/15 04:47:24;;;;;;;8.20;5.68;;;;;;;21.76;75.10;100484.69;2630063;39;20414;-73
2021/08/15 04:49:50;;;;;;;8.98;5.70;;;;;;;21.66;75.59;100487.06;2629213;54;20549;-71
2021/08/15 04:55:05;;;;;;;9.23;5.75;;;;;;;22.19;73.21;100480.91;2629425;54;20026;-70
2021/08/15 04:57:30;;;;;;;11.40;5.85;;;;;;;22.59;71.88;100487.66;2629564;54;20028;-70
2021/08/15 04:59:56;;;;;;;9.10;5.57;;;;;;;22.77;71.59;100485.53;2629930;46;20079;-69
2021/08/15 05:02:21;;;;;;;8.55;5.35;;;;;;;22.92;70.79;100485.28;2629322;47;20049;-70
2021/08/15 05:04:46;;;;;;;9.60;5.38;;;;;;;23.42;69.54;100479.09;2629379;47;20079;-70
2021/08/15 05:07:12;;;;;;;8.27;5.40;;;;;;;23.05;70.49;100477.47;2629271;54;20556;-70
2021/08/15 05:09:37;;;;;;;7.47;5.40;;;;;;;23.17;69.90;100484.38;2628999;54;20014;-69
2021/08/15 05:12:03;;;;;;;7.45;5.65;;;;;;;23.39;68.73;100481.94;2629483;54;20038;-70
2021/08/15 05:14:28;;;;;;;7.60;5.22;;;;;;;23.28;69.46;100479.22;2627917;47;20017;-71
2021/08/15 05:16:54;;;;;;;9.48;5.57;;;;;;;23.50;68.40;100483.72;2627852;54;20044;-69
2021/08/15 05:19:19;;;;;;;8.32;5.38;;;;;;;23.84;66.70;100482.88;2628789;54;20074;-70
2021/08/15 05:21:45;;;;;;;10.32;5.20;;;;;;;23.96;66.57;100479.38;2628497;54;20022;-70
2021/08/15 05:24:10;;;;;;;11.63;5.40;;;;;;;24.24;65.60;100480.75;2628539;54;20006;-73
2021/08/15 05:26:35;;;;;;;8.13;5.38;;;;;;;24.12;66.69;100476.47;2627661;47;20013;-71
2021/08/15 05:29:01;;;;;;;6.75;5.03;;;;;;;24.09;65.70;100488.75;2628585;54;20010;-71
2021/08/15 05:31:26;;;;;;;5.93;4.55;;;;;;;24.59;64.00;100482.28;2628509;54;20006;-70
2021/08/15 05:33:52;;;;;;;8.73;5.30;;;;;;;24.77;63.81;100480.03;2628667;54;20013;-69
2021/08/15 05:36:17;;;;;;;9.60;5.05;;;;;;;24.66;63.56;100493.03;2629429;54;20014;-70
2021/08/15 05:38:43;;;;;;;7.07;5.05;;;;;;;24.74;62.99;100480.31;2629493;47;20059;-69
2021/08/15 05:41:08;;;;;;;10.88;5.28;;;;;;;24.78;63.05;100481.72;2629987;54;19990;-76
2021/08/15 05:43:33;;;;;;;8.60;5.07;;;;;;;25.13;62.02;100482.34;2629619;54;20015;-72
2021/08/15 05:45:59;;;;;;;7.18;5.03;;;;;;;25.38;61.37;100473.34;2629633;47;20002;-69
2021/08/15 05:48:24;;;;;;;8.00;5.18;;;;;;;25.28;61.31;100482.84;2629350;54;20011;-70
2021/08/15 05:50:50;;;;;;;6.95;5.05;;;;;;;25.25;61.74;100472.72;2631485;39;20437;-74
2021/08/15 05:53:15;;;;;;;8.27;5.20;;;;;;;25.59;60.73;100475.06;2627423;47;20003;-70
2021/08/15 06:01:05;;;;;;;7.00;4.57;;;;;;;25.94;59.26;100476.53;2626841;39;20085;-69
2021/08/15 06:03:31;;;;;;;6.55;5.03;;;;;;;26.33;59.17;100475.78;2626585;54;20026;-69
2021/08/15 06:05:56;;;;;;;5.43;4.38;;;;;;;25.66;59.03;100471.00;2625558;47;20013;-70
2021/08/15 06:08:22;;;;;;;7.57;3.97;;;;;;;26.42;58.03;100480.25;2627393;54;20057;-69
2021/08/15 06:10:47;;;;;;;6.00;4.03;;;;;;;26.57;57.33;100477.13;2626936;54;20024;-69
2021/08/15 06:13:15;;;;;;;5.80;4.47;;;;;;;26.44;57.33;100481.75;2627182;54;20006;-69
2021/08/15 06:15:40;;;;;;;6.50;4.28;;;;;;;26.49;56.23;100478.75;2627261;54;20007;-69
2021/08/15 06:18:06;;;;;;;7.00;3.92;;;;;;;26.52;54.93;100475.91;2627127;54;20253;-69
2021/08/15 06:20:31;;;;;;;5.72;3.90;;;;;;;26.96;55.79;100472.84;2626454;47;20014;-69
2021/08/15 06:22:57;;;;;;;6.10;3.47;;;;;;;27.27;53.72;100473.59;2626513;46;20003;-69
2021/08/15 06:25:22;;;;;;;6.72;3.92;;;;;;;27.22;53.78;100476.59;2627293;54;20022;-69
2021/08/15 06:27:48;;;;;;;5.55;3.90;;;;;;;27.68;51.68;100475.09;2625413;54;20018;-72
2021/08/15 06:30:16;;;;;;;7.43;3.85;;;;;;;27.45;52.12;100474.59;2626420;39;20429;-68
2021/08/15 06:32:52;;;;;;;4.97;3.80;;;;;;;27.48;51.83;100476.91;2625520;54;20007;-70
2021/08/15 06:35:23;;;;;;;7.35;3.20;;;;;;;27.96;48.85;100476.88;2624802;54;20021;-70
2021/08/15 06:37:52;;;;;;;6.43;3.30;;;;;;;27.63;47.47;100477.31;2624957;54;20094;-71
2021/08/15 06:40:20;;;;;;;5.55;3.53;;;;;;;28.13;48.55;100474.34;2625866;54;20017;-69
2021/08/15 06:42:46;;;;;;;5.40;4.00;;;;;;;27.49;49.43;100477.75;2625191;54;20003;-70
2021/08/15 06:45:11;;;;;;;7.20;3.80;;;;;;;27.62;49.37;100479.09;2625056;54;20544;-70
2021/08/15 06:47:37;;;;;;;7.25;3.60;;;;;;;28.35;46.71;100478.38;2625508;54;20034;-69
2021/08/15 06:50:04;;;;;;;4.55;3.50;;;;;;;28.49;46.13;100477.09;2625092;54;20098;-69
2021/08/15 06:52:33;;;;;;;6.88;3.70;;;;;;;28.59;45.50;100475.28;2624936;47;20003;-69
2021/08/15 06:54:59;;;;;;;4.38;3.40;;;;;;;28.13;45.96;100478.75;2624897;47;20612;-70
2021/08/15 06:57:25;;;;;;;5.88;3.53;;;;;;;28.53;45.15;100470.59;2624230;47;20025;-71
2021/08/15 06:59:51;;;;;;;7.78;3.88;;;;;;;28.78;42.82;100473.38;2624169;47;20006;-70
2021/08/15 07:05:08;;;;;;;6.13;3.75;;;;;;;28.71;43.62;100467.09;2624943;54;20611;-69
2021/08/15 07:07:33;;;;;;;7.25;3.47;;;;;;;29.03;41.58;100474.47;2625955;39;20501;-70
2021/08/15 07:09:59;;;;;;;4.68;3.70;;;;;;;29.25;40.81;100473.22;2625678;54;20007;-69
2021/08/15 07:12:24;;;;;;;6.90;3.83;;;;;;;29.01;41.13;100472.00;2624695;54;20015;-70
2021/08/15 07:14:50;;;;;;;5.15;3.45;;;;;;;29.47;40.12;100472.78;2625457;31;20459;-70
2021/08/15 07:17:15;;;;;;;4.88;3.20;;;;;;;29.22;41.97;100476.16;2624520;54;20029;-69
2021/08/15 07:19:41;;;;;;;5.38;3.25;;;;;;;29.75;40.32;100469.09;2624696;47;20011;-69
2021/08/15 07:22:06;;;;;;;5.20;3.50;;;;;;;29.28;41.36;100473.75;2625904;39;20410;-70
2021/08/15 07:24:32;;;;;;;5.95;3.53;;;;;;;28.53;42.14;100465.34;2624618;47;20007;-68
2021/08/15 07:26:58;;;;;;;5.00;3.40;;;;;;;29.12;40.70;100465.69;2625611;54;20007;-69
2021/08/15 07:29:25;;;;;;;7.43;3.80;;;;;;;30.18;39.82;100470.81;2625384;54;20111;-69
2021/08/15 07:31:50;;;;;;;5.55;3.58;;;;;;;29.85;39.50;100469.81;2625596;54;20006;-70
2021/08/15 07:34:15;;;;;;;5.15;3.70;;;;;;;29.57;39.53;100458.59;2625489;54;20007;-69
2021/08/15 07:36:41;;;;;;;6.10;4.18;;;;;;;29.83;39.13;100463.91;2625329;54;20054;-69
2021/08/15 07:39:06;;;;;;;7.43;4.15;;;;;;;30.07;38.28;100471.91;2625440;54;20014;-71
2021/08/15 07:41:32;;;;;;;5.50;3.90;;;;;;;29.83;38.33;100469.94;2625749;54;20094;-71
2021/08/15 07:43:57;;;;;;;5.80;3.88;;;;;;;30.22;37.56;100464.28;2625536;54;20006;-70
2021/08/15 07:46:23;;;;;;;5.85;3.78;;;;;;;29.51;38.91;100463.63;2626397;54;20017;-71
2021/08/15 07:48:48;;;;;;;6.97;3.80;;;;;;;30.13;37.32;100462.59;2626371;54;20015;-72
2021/08/15 07:51:14;;;;;;;5.80;3.63;;;;;;;29.93;37.62;100457.56;2625875;54;20022;-69
2021/08/15 07:53:39;;;;;;;7.50;3.67;;;;;;;29.84;38.32;100457.66;2625662;54;20134;-70
2021/08/15 07:56:04;;;;;;;7.03;3.95;;;;;;;30.00;37.83;100452.53;2626003;54;20014;-77
2021/08/15 07:58:30;;;;;;;9.15;3.97;;;;;;;30.14;37.53;100462.44;2625498;47;20011;-70
2021/08/15 08:00:58;;;;;;;6.70;3.83;;;;;;;29.47;38.36;100452.63;2624427;47;20026;-71
2021/08/15 08:03:24;;;;;;;5.45;3.95;;;;;;;30.95;36.29;100444.38;2625535;54;20022;-69
2021/08/15 08:06:03;;;;;;;6.18;3.53;;;;;;;30.12;38.13;100456.53;2623970;54;20045;-68
2021/08/15 08:08:29;;;;;;;5.38;3.70;;;;;;;30.23;37.20;100456.25;2624506;47;20049;-69
2021/08/15 08:10:54;;;;;;;7.75;3.80;;;;;;;30.84;36.48;100453.41;2624616;54;20026;-70
2021/08/15 08:13:22;;;;;;;5.40;3.47;;;;;;;30.70;37.41;100452.19;2624484;54;20019;-68
2021/08/15 08:15:47;;;;;;;5.50;3.50;;;;;;;30.90;36.54;100449.31;2625032;54;20130;-69
2021/08/15 08:18:13;;;;;;;6.88;4.05;;;;;;;31.06;35.92;100446.72;2624830;54;20058;-68
2021/08/15 08:20:40;;;;;;;6.18;3.50;;;;;;;31.36;35.36;100443.41;2625971;54;20011;-70
2021/08/15 08:23:08;;;;;;;4.88;4.03;;;;;;;30.76;36.10;100438.41;2625016;54;20003;-70
2021/08/15 08:25:33;;;;;;;8.38;4.25;;;;;;;31.30;35.09;100441.44;2624451;54;20015;-69
2021/08/15 08:27:59;;;;;;;6.65;4.18;;;;;;;32.01;34.26;100434.50;2624400;54;20011;-70
2021/08/15 08:30:25;;;;;;;6.80;3.97;;;;;;;31.06;35.43;100439.63;2623798;47;20063;-69
2021/08/15 08:32:50;;;;;;;7.45;4.88;;;;;;;31.44;36.25;100435.56;2624596;39;20437;-71
2021/08/15 08:35:16;;;;;;;6.53;4.45;;;;;;;30.94;36.74;100434.88;2622960;54;20010;-69
2021/08/15 08:37:44;;;;;;;7.50;4.40;;;;;;;31.40;36.21;100435.06;2623289;54;20021;-69
2021/08/15 08:40:11;;;;;;;4.28;3.60;;;;;;;31.60;35.72;100430.28;2622246;54;20017;-70
2021/08/15 08:42:37;;;;;;;7.45;4.13;;;;;;;31.95;35.40;100432.53;2623309;54;20006;-70
2021/08/15 08:45:03;;;;;;;6.45;3.88;;;;;;;31.86;34.30;100436.16;2623209;47;20541;-70
2021/08/15 08:47:30;;;;;;;8.55;4.00;;;;;;;32.00;34.30;100424.97;2623726;47;20025;-72
2021/08/15 08:49:57;;;;;;;5.13;3.40;;;;;;;31.61;35.15;100424.06;2623929;47;20102;-72
2021/08/15 08:52:25;;;;;;;6.82;3.85;;;;;;;31.10;34.47;100422.56;2627199;39;20406;-69
2021/08/15 08:54:51;;;;;;;6.00;3.85;;;;;;;31.52;34.39;100414.53;2623733;47;20101;-69
2021/08/15 08:57:17;;;;;;;8.63;4.22;;;;;;;31.04;34.92;100399.56;2623822;54;20007;-70
2021/08/15 08:59:42;;;;;;;6.60;3.90;;;;;;;32.34;32.98;100411.50;2623822;54;20014;-70
2021/08/15 09:02:08;;;;;;;5.57;3.70;;;;;;;32.48;33.58;100413.44;2623716;54;20545;-69
2021/08/15 09:04:34;;;;;;;6.22;3.70;;;;;;;32.81;34.06;100408.78;2623856;54;20033;-70
2021/08/15 09:09:30;;;;;;;7.78;4.65;;;;;;;32.36;33.48;100396.34;2623245;54;20126;-71
2021/08/15 09:11:59;;;;;;;5.32;3.78;;;;;;;32.86;33.58;100395.91;2623783;54;20031;-72
2021/08/15 09:14:25;;;;;;;8.20;5.10;;;;;;;32.43;32.84;100392.03;2624136;54;20014;-73
2021/08/15 09:17:04;;;;;;;5.32;3.75;;;;;;;33.10;32.20;100393.13;2624715;54;20007;-70
2021/08/15 09:19:51;;;;;;;5.85;3.95;;;;;;;31.93;33.41;100391.63;2624274;47;20006;-69
2021/08/15 09:22:21;;;;;;;7.45;4.38;;;;;;;33.48;31.53;100391.34;2623357;47;20002;-71
2021/08/15 09:24:58;;;;;;;6.90;4.28;;;;;;;32.48;33.12;100387.09;2624641;54;20007;-70
2021/08/15 09:27:44;;;;;;;5.55;4.10;;;;;;;32.81;32.42;100387.72;2624612;39;20417;-70
2021/08/15 09:30:13;;;;;;;6.10;4.40;;;;;;;32.51;32.45;100384.13;2624392;54;20006;-69
2021/08/15 09:32:49;;;;;;;8.93;5.35;;;;;;;32.84;32.14;100382.91;2625940;39;20403;-70
2021/08/15 09:35:31;;;;;;;4.80;3.97;;;;;;;32.63;32.53;100377.44;2625355;54;20010;-70
2021/08/15 09:38:01;;;;;;;8.10;4.25;;;;;;;32.71;32.61;100364.22;2625180;54;20023;-71
2021/08/15 09:40:46;;;;;;;7.05;4.35;;;;;;;32.86;32.09;100364.28;2625551;54;20026;-69
2021/08/15 09:43:28;;;;;;;6.32;4.35;;;;;;;33.13;31.45;100361.94;2622991;54;20007;-69
2021/08/15 09:45:56;;;;;;;5.60;3.92;;;;;;;32.89;31.83;100350.75;2623763;31;20498;-68
2021/08/15 09:48:24;;;;;;;9.73;5.25;;;;;;;33.16;31.81;100358.13;2622820;54;20007;-69
2021/08/15 09:51:16;;;;;;;6.07;4.18;;;;;;;33.04;32.19;100352.44;2622774;54;20007;-70
2021/08/15 09:54:03;;;;;;;5.47;4.28;;;;;;;33.80;30.52;100352.19;2622248;54;20011;-71
2021/08/15 09:56:40;;;;;;;6.22;4.30;;;;;;;33.34;30.53;100348.06;2621464;47;20058;-70
2021/08/15 09:59:08;;;;;;;9.80;4.80;;;;;;;33.24;31.24;100342.22;2621653;54;20570;-71
2021/08/15 10:01:34;;;;;;;5.63;4.47;;;;;;;34.19;29.91;100336.03;2621753;54;20118;-70
2021/08/15 10:03:59;;;;;;;6.35;3.90;;;;;;;33.19;30.75;100334.03;2622183;54;20007;-70
2021/08/15 10:06:25;;;;;;;12.13;5.60;;;;;;;34.28;30.66;100326.19;2622692;54;20033;-69
2021/08/15 10:08:51;;;;;;;9.10;4.10;;;;;;;32.57;31.38;100327.28;2622845;54;20066;-72
2021/08/15 10:11:16;;;;;;;5.32;4.30;;;;;;;32.18;32.56;100325.53;2623325;54;20031;-71
2021/08/15 10:13:42;;;;;;;5.15;4.05;;;;;;;33.31;31.13;100327.34;2623362;54;20017;-69
2021/08/15 10:16:09;;;;;;;6.93;4.25;;;;;;;33.58;30.42;100320.63;2623565;54;20033;-71
2021/08/15 10:18:39;;;;;;;8.15;4.60;;;;;;;34.57;28.93;100313.72;2624041;39;20391;-69
2021/08/15 10:21:16;;;;;;;5.53;4.10;;;;;;;34.37;29.42;100312.66;2623672;39;20422;-70
2021/08/15 10:23:43;;;;;;;8.38;4.15;;;;;;;34.60;28.92;100304.59;2621726;47;20003;-75
2021/08/15 10:26:36;;;;;;;6.18;4.40;;;;;;;33.60;30.56;100308.91;2622099;47;20007;-70
2021/08/15 10:29:03;;;;;;;6.28;4.07;;;;;;;33.42;29.67;100292.56;2621526;47;20007;-69
2021/08/15 10:32:06;;;;;;;7.90;4.07;;;;;;;33.84;30.12;100292.75;2622003;54;20530;-70
2021/08/15 10:34:50;;;;;;;6.85;4.45;;;;;;;34.29;29.33;100283.72;2621821;47;20049;-70
2021/08/15 10:37:27;;;;;;;7.80;4.65;;;;;;;35.33;29.02;100283.81;2620712;47;20009;-69
2021/08/15 10:39:56;;;;;;;6.18;4.60;;;;;;;34.36;29.61;100281.16;2620198;47;20529;-71
2021/08/15 10:42:39;;;;;;;9.05;4.78;;;;;;;33.87;29.65;100281.81;2621747;54;20018;-69
2021/08/15 10:45:07;;;;;;;10.90;5.05;;;;;;;33.82;30.41;100278.94;2620997;54;20556;-70
2021/08/15 10:47:33;;;;;;;5.55;4.15;;;;;;;33.35;31.09;100275.03;2622349;54;20018;-69
2021/08/15 10:50:03;;;;;;;5.78;4.50;;;;;;;34.62;29.01;100262.94;2620841;47;20002;-69
2021/08/15 10:52:40;;;;;;;5.20;4.37;;;;;;;34.67;29.18;100258.72;2621271;47;20053;-69
2021/08/15 10:55:09;;;;;;;7.28;4.20;;;;;;;34.75;29.17;100255.94;2622247;54;20025;-69
2021/08/15 10:57:50;;;;;;;7.30;4.22;;;;;;;33.64;30.50;100251.28;2622470;54;20777;-71
2021/08/15 11:00:31;;;;;;;5.90;4.50;;;;;;;34.30;29.45;100245.75;2622592;47;20011;-71
2021/08/15 11:02:58;;;;;;;6.82;4.38;;;;;;;33.80;30.21;100243.97;2623236;54;20101;-73
2021/08/15 11:05:38;;;;;;;5.55;4.25;;;;;;;33.79;30.19;100250.28;2623725;54;20014;-72
2021/08/15 11:08:24;;;;;;;8.07;4.40;;;;;;;34.14;30.90;100246.00;2623593;54;20017;-73
2021/08/15 11:11:05;;;;;;;5.22;4.55;;;;;;;33.65;29.51;100243.22;2623244;54;20044;-69
2021/08/15 11:13:31;;;;;;;5.80;4.57;;;;;;;34.01;29.36;100225.56;2623686;54;20023;-70
2021/08/15 11:16:25;;;;;;;6.63;4.50;;;;;;;33.61;29.95;100231.38;2623229;54;20010;-71
2021/08/15 11:19:08;;;;;;;8.27;5.15;;;;;;;34.42;29.74;100217.00;2623122;47;20007;-70
2021/08/15 11:22:21;;;;;;;6.70;4.45;;;;;;;33.53;30.11;100220.09;2623756;54;20518;-74
2021/08/15 11:24:57;;;;;;;9.50;4.40;;;;;;;34.86;28.85;100217.59;2622034;54;20022;-70
2021/08/15 11:27:24;;;;;;;5.93;4.30;;;;;;;34.74;28.66;100205.91;2621781;54;20022;-70
2021/08/15 11:29:50;;;;;;;5.85;4.20;;;;;;;35.54;28.28;100203.53;2623918;39;20417;-69
2021/08/15 11:32:17;;;;;;;6.25;4.25;;;;;;;35.29;28.60;100205.03;2622771;54;20009;-69
2021/08/15 11:35:11;;;;;;;8.88;5.18;;;;;;;34.97;28.80;100201.19;2621920;47;20541;-69
2021/08/15 11:37:41;;;;;;;6.05;4.57;;;;;;;34.24;29.40;100188.41;2620829;47;20015;-69
2021/08/15 11:40:19;;;;;;;6.65;4.63;;;;;;;34.32;28.87;100185.63;2622870;54;20055;-70
2021/08/15 11:43:15;;;;;;;8.48;4.60;;;;;;;35.05;28.48;100194.94;2622683;54;20502;-70
2021/08/15 11:45:44;;;;;;;5.85;4.22;;;;;;;34.97;28.18;100184.50;2622764;39;20429;-70
2021/08/15 11:48:18;;;;;;;6.00;4.25;;;;;;;35.04;28.34;100185.38;2622590;54;20010;-69
2021/08/15 11:50:52;;;;;;;8.60;4.28;;;;;;;34.48;29.13;100189.84;2622547;54;20002;-70
2021/08/15 11:53:29;;;;;;;5.75;4.07;;;;;;;34.71;28.83;100180.66;2623058;39;20516;-70
2021/08/15 11:55:57;;;;;;;5.65;4.30;;;;;;;35.17;28.65;100175.66;2623119;46;20018;-72
2021/08/15 11:58:23;;;;;;;6.88;4.07;;;;;;;35.38;28.30;100170.25;2623773;54;20045;-69
2021/08/15 12:00:49;;;;;;;7.47;4.35;;;;;;;35.34;28.48;100162.94;2623200;54;20023;-69
2021/08/15 12:03:20;;;;;;;4.63;4.07;;;;;;;35.08;28.49;100165.47;2622787;47;20601;-70
2021/08/15 12:05:56;;;;;;;7.10;4.22;;;;;;;35.21;28.99;100166.34;2624394;39;20409;-70
2021/08/15 12:08:38;;;;;;;4.95;4.05;;;;;;;34.76;28.25;100169.53;2623063;39;20409;-71
2021/08/15 12:11:30;;;;;;;7.55;4.60;;;;;;;35.51;27.55;100162.41;2620042;54;20007;-69
2021/08/15 12:14:08;;;;;;;5.53;4.20;;;;;;;34.25;29.21;100168.09;2621804;47;20023;-69
2021/08/15 12:16:34;;;;;;;8.45;4.50;;;;;;;34.89;28.84;100166.94;2621822;46;20037;-69
2021/08/15 12:19:00;;;;;;;5.60;4.40;;;;;;;34.86;28.54;100164.72;2621826;47;20030;-69
2021/08/15 12:21:30;;;;;;;5.32;4.20;;;;;;;35.21;28.21;100158.41;2622157;54;20006;-68
2021/08/15 12:23:58;;;;;;;6.20;4.20;;;;;;;34.91;28.59;100159.63;2621949;54;20021;-69
2021/08/15 12:26:25;;;;;;;6.60;4.60;;;;;;;35.20;28.09;100151.47;2622317;54;20588;-70
2021/08/15 12:28:56;;;;;;;5.90;4.63;;;;;;;35.90;27.84;100151.06;2622746;54;20022;-71
2021/08/15 12:31:30;;;;;;;5.90;4.10;;;;;;;35.56;27.97;100157.31;2622224;54;20540;-70
2021/08/15 12:34:16;;;;;;;6.00;4.10;;;;;;;35.62;27.72;100153.06;2622536;54;20007;-69
2021/08/15 12:36:50;;;;;;;7.32;4.53;;;;;;;34.76;28.70;100145.72;2622896;54;20082;-71
2021/08/15 12:39:24;;;;;;;6.45;4.40;;;;;;;34.65;29.63;100144.44;2623490;54;20015;-70
2021/08/15 12:41:56;;;;;;;5.25;4.30;;;;;;;34.78;28.32;100143.72;2622927;54;20011;-69
2021/08/15 12:44:45;;;;;;;5.07;4.38;;;;;;;35.34;27.88;100144.41;2622311;47;20014;-69
2021/08/15 12:47:10;;;;;;;5.13;4.38;;;;;;;35.06;28.19;100146.31;2622913;54;20057;-70
2021/08/15 12:49:46;;;;;;;5.93;4.30;;;;;;;34.81;28.84;100135.38;2623039;39;20505;-71
2021/08/15 12:52:27;;;;;;;5.75;4.00;;;;;;;34.60;28.42;100131.00;2623266;39;20423;-70
2021/08/15 12:55:15;;;;;;;6.38;4.50;;;;;;;35.16;28.28;100126.41;2621415;54;20014;-70
2021/08/15 12:57:44;;;;;;;5.63;4.57;;;;;;;34.86;28.62;100136.41;2621182;54;20557;-71
2021/08/15 13:00:10;;;;;;;7.35;4.13;;;;;;;34.45;28.29;100124.97;2621230;54;20010;-69
2021/08/15 13:02:36;;;;;;;6.18;4.38;;;;;;;34.21;28.50;100122.75;2619840;47;20641;-69
2021/08/15 13:05:04;;;;;;;4.95;3.83;;;;;;;34.67;28.43;100129.19;2620189;54;20021;-70
2021/08/15 13:07:30;;;;;;;7.32;4.57;;;;;;;34.50;28.62;100113.84;2621642;54;20522;-68
2021/08/15 13:09:56;;;;;;;7.43;4.22;;;;;;;35.05;28.38;100110.28;2621718;54;20010;-70
2021/08/15 13:12:22;;;;;;;4.90;4.20;;;;;;;35.32;28.13;100096.97;2622078;54;20019;-69
2021/08/15 13:14:48;;;;;;;7.30;4.43;;;;;;;34.53;28.43;100109.00;2622664;54;20034;-71
2021/08/15 13:17:14;;;;;;;5.28;4.15;;;;;;;34.16;28.88;100106.66;2621975;54;20045;-68
2021/08/15 13:19:41;;;;;;;6.57;4.40;;;;;;;35.06;28.05;100099.53;2622980;31;20435;-70
2021/08/15 13:22:07;;;;;;;6.10;4.53;;;;;;;35.55;27.64;100100.13;2621742;54;20015;-70
2021/08/15 13:24:33;;;;;;;6.97;4.50;;;;;;;35.25;28.18;100096.16;2621519;47;20080;-69
2021/08/15 13:27:03;;;;;;;4.70;4.18;;;;;;;34.78;28.31;100096.91;2622601;54;20011;-71
2021/08/15 13:29:28;;;;;;;4.88;4.30;;;;;;;34.59;28.54;100091.53;2622629;54;20010;-70
2021/08/15 13:31:54;;;;;;;5.53;4.53;;;;;;;34.08;28.85;100093.59;2623778;54;20048;-70
2021/08/15 13:34:19;;;;;;;5.53;4.47;;;;;;;33.83;28.99;100095.00;2625333;39;20452;-69
2021/08/15 13:36:45;;;;;;;7.35;4.28;;;;;;;34.53;28.53;100087.03;2622976;54;20090;-70
2021/08/15 13:39:10;;;;;;;7.53;4.38;;;;;;;34.48;27.90;100100.00;2622112;54;20011;-69
2021/08/15 13:41:36;;;;;;;7.78;4.40;;;;;;;33.85;28.91;100079.78;2622246;54;20011;-69